Royal Melbourne — WDC2865 — position and weather

sailwx.info

Track history (hours):
 
Tides and Currents Weather Stations Pressure Air Temp Water Temp Dewpoint Dewpoint Depression Visibility Wind Speed Wind Dir Waves Ship Positions

Royal Melbourne

Owner: Harley Marine Services, Inc, Seattle, WA. More information available from US FCC via Universal Licensing System and Coast Guard Vessel Documentation Center.

Last reported at 2014-Nov-26 05:33 UTC. Time now 2014-Nov-26 06:35 UTC.
Position N 37°54' W 122°23'.

Length 30 m; draft 2 m.

Type: Tug. MMSI: 366998830.

Date/timePositionNaut miles runAvg speedWind from/ knotsBaromVisibWave heightAir tempDewpointWater temp
2014-Nov-26 05:33N 37°54' W 122°23'6 6.2
2014-Nov-26 04:33N 38°00' W 122°24'7 7.1
2014-Nov-26 03:32N 38°03' W 122°16'0 0.0
2014-Nov-26 02:32N 38°03' W 122°16'0 0.0
2014-Nov-26 01:32N 38°03' W 122°16'0 0.0
2014-Nov-26 00:32N 38°03' W 122°16'0 0.0
2014-Nov-25 23:32N 38°03' W 122°16'0 0.0
2014-Nov-25 22:26N 38°03' W 122°16'0 0.0
2014-Nov-25 21:26N 38°03' W 122°16'0 0.0
2014-Nov-25 20:26N 38°03' W 122°16'0 0.0
2014-Nov-25 19:25N 38°03' W 122°16'0 0.0
2014-Nov-25 18:31N 38°03' W 122°16'0 0.0
2014-Nov-25 17:31N 38°03' W 122°16'0 0.0
2014-Nov-25 16:31N 38°03' W 122°16'0 0.0
2014-Nov-25 15:31N 38°03' W 122°16'0 0.0
2014-Nov-25 14:31N 38°03' W 122°16'0 0.0
2014-Nov-25 13:31N 38°03' W 122°16'0 0.0
2014-Nov-25 12:31N 38°03' W 122°16'0 0.0
2014-Nov-25 11:31N 38°03' W 122°16'0 0.0
2014-Nov-25 10:31N 38°03' W 122°16'0 0.0
2014-Nov-25 09:31N 38°03' W 122°16'0 0.0
2014-Nov-25 08:31N 38°03' W 122°16'0 0.0
2014-Nov-25 07:31N 38°03' W 122°16'0 0.0
2014-Nov-25 06:31N 38°03' W 122°16'0 0.0
2014-Nov-25 05:31N 38°03' W 122°16'0 0.0
2014-Nov-25 04:25N 38°03' W 122°16'0 0.0
2014-Nov-25 03:31N 38°03' W 122°16'0 0.0
2014-Nov-25 02:33N 38°03' W 122°16'6 0.6
2014-Nov-24 15:22N 38°03' W 122°08'1 0.3
2014-Nov-24 13:13N 38°02' W 122°08'5 7.5
2014-Nov-24 12:31N 38°04' W 122°15'9 9.4
2014-Nov-24 11:33N 37°60' W 122°25'9 9.0
2014-Nov-24 10:33N 37°51' W 122°24'6 6.0
2014-Nov-24 09:31N 37°45' W 122°20'0 0.0
2014-Nov-24 08:31N 37°45' W 122°20'0 0.0
2014-Nov-24 07:31N 37°45' W 122°20'0 0.0
2014-Nov-24 06:31N 37°45' W 122°20'0 0.0
2014-Nov-24 05:31N 37°45' W 122°20'0 0.1
2014-Nov-24 04:33N 37°45' W 122°20'7 7.4
2014-Nov-24 03:33N 37°52' W 122°24'3 3.4
2014-Nov-24 02:32N 37°55' W 122°22'0 0.0
2014-Nov-24 01:32N 37°55' W 122°22'0 0.0
2014-Nov-24 00:32N 37°55' W 122°22'0 0.0
2014-Nov-23 23:32N 37°55' W 122°22'0 0.0
2014-Nov-23 22:32N 37°55' W 122°22'0 0.0
2014-Nov-23 21:32N 37°55' W 122°22'0 0.0
2014-Nov-23 20:32N 37°55' W 122°22'2 1.8
2014-Nov-23 19:33N 37°54' W 122°24'7 6.9
2014-Nov-23 18:33N 37°48' W 122°22'2 2.3
2014-Nov-23 17:33N 37°45' W 122°21'0 0.0
2014-Nov-23 16:28N 37°45' W 122°21'0 0.0
2014-Nov-23 15:28N 37°45' W 122°21'0 0.2
2014-Nov-23 14:33N 37°46' W 122°21'2 2.0
2014-Nov-23 13:33N 37°47' W 122°21'3 2.9
2014-Nov-23 12:32N 37°48' W 122°17'0 0.0
2014-Nov-23 11:32N 37°48' W 122°17'0 0.0
2014-Nov-23 10:32N 37°48' W 122°17'0 0.0
2014-Nov-23 09:32N 37°48' W 122°17'0 0.0
2014-Nov-23 08:32N 37°48' W 122°17'0 0.0
2014-Nov-23 07:32N 37°48' W 122°17'0 0.0
2014-Nov-23 06:32N 37°48' W 122°17'0 0.0
2014-Nov-23 05:32N 37°48' W 122°17'0 0.0
2014-Nov-23 04:32N 37°48' W 122°17'0 0.0
2014-Nov-23 03:26N 37°48' W 122°17'1 1.4
2014-Nov-23 02:33N 37°48' W 122°19'3 2.9
2014-Nov-23 01:31N 37°45' W 122°21'0 0.0
2014-Nov-23 00:31N 37°45' W 122°21'1 1.4
2014-Nov-22 23:33N 37°46' W 122°21'3 3.0
2014-Nov-22 22:31N 37°48' W 122°17'0 0.0
2014-Nov-22 21:25N 37°48' W 122°17'0 0.0
2014-Nov-22 20:33N 37°48' W 122°17'0 0.0
2014-Nov-22 19:33N 37°48' W 122°17'0 0.0
2014-Nov-22 18:33N 37°48' W 122°17'0 0.0
2014-Nov-22 17:33N 37°48' W 122°17'0 0.0
2014-Nov-22 16:33N 37°48' W 122°17'0 0.0
2014-Nov-22 15:33N 37°48' W 122°17'0 0.0
2014-Nov-22 14:33N 37°48' W 122°17'0 0.0
2014-Nov-22 13:33N 37°48' W 122°17'0 0.0
2014-Nov-22 12:33N 37°48' W 122°17'0 0.0
2014-Nov-22 11:33N 37°48' W 122°17'0 0.0
2014-Nov-22 10:33N 37°48' W 122°17'0 0.0
2014-Nov-22 09:33N 37°48' W 122°17'0 0.0
2014-Nov-22 08:33N 37°48' W 122°17'0 0.0
2014-Nov-22 07:33N 37°48' W 122°17'0 0.0
2014-Nov-22 06:33N 37°48' W 122°17'0 0.0
2014-Nov-22 05:30N 37°48' W 122°17'0 0.0
2014-Nov-22 04:30N 37°48' W 122°17'0 0.0
2014-Nov-22 03:33N 37°48' W 122°17'0 0.0
2014-Nov-22 02:30N 37°48' W 122°17'1 0.7
2014-Nov-22 01:33N 37°48' W 122°18'7 7.3
2014-Nov-22 00:33N 37°53' W 122°24'3 2.9
2014-Nov-21 23:29N 37°55' W 122°22'0 0.0
2014-Nov-21 22:32N 37°55' W 122°22'0 0.0
2014-Nov-21 21:29N 37°55' W 122°22'0 0.0
2014-Nov-21 20:32N 37°55' W 122°22'0 0.1
2014-Nov-21 19:28N 37°55' W 122°22'0 0.0
2014-Nov-21 18:28N 37°55' W 122°22'0 0.0
2014-Nov-21 17:31N 37°55' W 122°22'0 0.0
2014-Nov-21 16:33N 37°55' W 122°22'5 4.6
2014-Nov-21 15:33N 37°59' W 122°25'11 9.2
2014-Nov-21 14:24N 38°04' W 122°14'4 0.5
2014-Nov-21 05:27N 38°02' W 122°08'6 6.6
2014-Nov-21 04:33N 38°03' W 122°16'0 0.1
2014-Nov-21 03:24N 38°03' W 122°16'0 0.0
2014-Nov-21 02:24N 38°03' W 122°16'0 0.0
2014-Nov-21 01:24N 38°03' W 122°16'0 0.0
2014-Nov-20 04:19N 38°03' W 122°16'6 0.7
2014-Nov-19 19:19N 38°02' W 122°08'6 5.8
2014-Nov-19 18:18N 38°03' W 122°16'0 0.0
2014-Nov-19 17:30N 38°03' W 122°16'0 0.0
2014-Nov-19 16:23N 38°03' W 122°16'0 0.0
2014-Nov-19 15:29N 38°03' W 122°16'0 0.0
2014-Nov-19 14:29N 38°03' W 122°16'0 0.0
2014-Nov-19 13:29N 38°03' W 122°16'0 0.0
2014-Nov-19 12:29N 38°03' W 122°16'0 0.0
2014-Nov-19 11:23N 38°03' W 122°16'0 0.0
2014-Nov-19 10:23N 38°03' W 122°16'0 0.0
2014-Nov-19 09:29N 38°03' W 122°16'0 0.0
2014-Nov-19 08:29N 38°03' W 122°16'0 0.0
2014-Nov-19 07:29N 38°03' W 122°16'0 0.0
2014-Nov-19 06:29N 38°03' W 122°16'0 0.0
2014-Nov-19 05:29N 38°03' W 122°16'0 0.0
2014-Nov-19 04:29N 38°03' W 122°16'0 0.0
2014-Nov-19 03:29N 38°03' W 122°16'1 1.4
2014-Nov-19 02:33N 38°03' W 122°17'8 8.5
2014-Nov-19 01:33N 37°58' W 122°26'9 8.7
2014-Nov-19 00:33N 37°50' W 122°22'3 2.5
2014-Nov-18 23:32N 37°49' W 122°19'0 0.0
2014-Nov-18 22:31N 37°49' W 122°19'2 2.0
2014-Nov-18 21:33N 37°48' W 122°17'0 0.2
2014-Nov-18 20:32N 37°48' W 122°17'1 0.8
2014-Nov-18 19:33N 37°48' W 122°18'2 1.4
2014-Nov-18 18:31N 37°49' W 122°19'0 0.0
2014-Nov-18 17:31N 37°49' W 122°19'0 0.0
2014-Nov-18 16:31N 37°49' W 122°19'1 0.8
2014-Nov-18 15:33N 37°49' W 122°20'6 6.3
2014-Nov-18 14:33N 37°54' W 122°24'2 2.2
2014-Nov-18 13:31N 37°55' W 122°22'0 0.0
2014-Nov-18 12:31N 37°55' W 122°22'0 0.0
2014-Nov-18 11:31N 37°55' W 122°22'0 0.0
2014-Nov-18 10:31N 37°55' W 122°22'0 0.0
2014-Nov-18 09:04N 37°55' W 122°22'0 0.0
2014-Nov-18 08:31N 37°55' W 122°22'0 0.0
2014-Nov-18 07:31N 37°55' W 122°22'0 0.0
2014-Nov-18 06:31N 37°55' W 122°22'0 0.0
2014-Nov-18 05:31N 37°55' W 122°22'0 0.0
2014-Nov-18 04:31N 37°55' W 122°22'0 0.0
2014-Nov-18 03:31N 37°55' W 122°22'0 0.0
2014-Nov-18 02:31N 37°55' W 122°22'0 0.0
2014-Nov-18 01:31N 37°55' W 122°22'0 0.0
2014-Nov-18 00:33N 37°55' W 122°22'0 0.0
2014-Nov-17 23:30N 37°55' W 122°22'1 1.4
2014-Nov-17 22:33N 37°54' W 122°23'9 8.3
2014-Nov-17 21:30N 38°03' W 122°20'8 0.9
2014-Nov-17 12:33N 38°02' W 122°09'5 4.6
2014-Nov-17 11:33N 38°04' W 122°15'1 0.7
2014-Nov-17 10:30N 38°03' W 122°16'0 0.0
2014-Nov-17 09:30N 38°03' W 122°16'0 0.0
2014-Nov-17 08:30N 38°03' W 122°16'0 0.0
2014-Nov-17 07:30N 38°03' W 122°16'0 0.0
2014-Nov-17 06:18N 38°03' W 122°16'0 0.0
2014-Nov-17 05:30N 38°03' W 122°16'0 0.0
2014-Nov-17 04:12N 38°03' W 122°16'0 0.0
2014-Nov-17 03:30N 38°03' W 122°16'0 0.0
2014-Nov-17 02:30N 38°03' W 122°16'0 0.0
2014-Nov-17 01:24N 38°03' W 122°16'0 0.0
2014-Nov-17 00:30N 38°03' W 122°16'0 0.0
2014-Nov-16 23:24N 38°03' W 122°16'0 0.0
2014-Nov-16 22:33N 38°03' W 122°16'2 2.4
2014-Nov-16 21:33N 38°03' W 122°19'7 7.5
2014-Nov-16 20:33N 37°58' W 122°26'9 8.6
2014-Nov-16 19:33N 37°50' W 122°23'4 3.9
2014-Nov-16 18:33N 37°46' W 122°22'0 0.0
2014-Nov-16 17:32N 37°46' W 122°22'0 0.3
2014-Nov-16 16:29N 37°46' W 122°22'0 0.1
2014-Nov-16 15:32N 37°46' W 122°21'0 0.0
2014-Nov-16 14:32N 37°46' W 122°21'1 0.5
2014-Nov-16 13:33N 37°46' W 122°21'2 1.5
2014-Nov-16 12:33N 37°44' W 122°20'0 0.0
2014-Nov-16 11:33N 37°44' W 122°20'0 0.0
2014-Nov-16 10:33N 37°44' W 122°20'0 0.2
2014-Nov-16 09:33N 37°44' W 122°20'0 0.1
2014-Nov-16 08:33N 37°44' W 122°20'0 0.0
2014-Nov-16 07:33N 37°44' W 122°20'0 0.3
2014-Nov-16 06:33N 37°44' W 122°21'  
Track history (hours):
 
Tides and Currents Weather Stations Pressure Air Temp Water Temp Dewpoint Dewpoint Depression Visibility Wind Speed Wind Dir Waves Ship Positions

Royal Melbourne

Owner: Harley Marine Services, Inc, Seattle, WA. More information available from US FCC via Universal Licensing System and Coast Guard Vessel Documentation Center.

Last reported at 2014-Nov-26 05:33 UTC. Time now 2014-Nov-26 06:35 UTC.
Position N 37°54' W 122°23'.

Length 30 m; draft 2 m.

Type: Tug. MMSI: 366998830.

Date/timePositionNaut miles runAvg speedWind from/ knotsBaromVisibWave heightAir tempDewpointWater temp
2014-Nov-26 05:33N 37°54' W 122°23'6 6.2
2014-Nov-26 04:33N 38°00' W 122°24'7 7.1
2014-Nov-26 03:32N 38°03' W 122°16'0 0.0
2014-Nov-26 02:32N 38°03' W 122°16'0 0.0
2014-Nov-26 01:32N 38°03' W 122°16'0 0.0
2014-Nov-26 00:32N 38°03' W 122°16'0 0.0
2014-Nov-25 23:32N 38°03' W 122°16'0 0.0
2014-Nov-25 22:26N 38°03' W 122°16'0 0.0
2014-Nov-25 21:26N 38°03' W 122°16'0 0.0
2014-Nov-25 20:26N 38°03' W 122°16'0 0.0
2014-Nov-25 19:25N 38°03' W 122°16'0 0.0
2014-Nov-25 18:31N 38°03' W 122°16'0 0.0
2014-Nov-25 17:31N 38°03' W 122°16'0 0.0
2014-Nov-25 16:31N 38°03' W 122°16'0 0.0
2014-Nov-25 15:31N 38°03' W 122°16'0 0.0
2014-Nov-25 14:31N 38°03' W 122°16'0 0.0
2014-Nov-25 13:31N 38°03' W 122°16'0 0.0
2014-Nov-25 12:31N 38°03' W 122°16'0 0.0
2014-Nov-25 11:31N 38°03' W 122°16'0 0.0
2014-Nov-25 10:31N 38°03' W 122°16'0 0.0
2014-Nov-25 09:31N 38°03' W 122°16'0 0.0
2014-Nov-25 08:31N 38°03' W 122°16'0 0.0
2014-Nov-25 07:31N 38°03' W 122°16'0 0.0
2014-Nov-25 06:31N 38°03' W 122°16'0 0.0
2014-Nov-25 05:31N 38°03' W 122°16'0 0.0
2014-Nov-25 04:25N 38°03' W 122°16'0 0.0
2014-Nov-25 03:31N 38°03' W 122°16'0 0.0
2014-Nov-25 02:33N 38°03' W 122°16'6 0.6
2014-Nov-24 15:22N 38°03' W 122°08'1 0.3
2014-Nov-24 13:13N 38°02' W 122°08'5 7.5
2014-Nov-24 12:31N 38°04' W 122°15'9 9.4
2014-Nov-24 11:33N 37°60' W 122°25'9 9.0
2014-Nov-24 10:33N 37°51' W 122°24'6 6.0
2014-Nov-24 09:31N 37°45' W 122°20'0 0.0
2014-Nov-24 08:31N 37°45' W 122°20'0 0.0
2014-Nov-24 07:31N 37°45' W 122°20'0 0.0
2014-Nov-24 06:31N 37°45' W 122°20'0 0.0
2014-Nov-24 05:31N 37°45' W 122°20'0 0.1
2014-Nov-24 04:33N 37°45' W 122°20'7 7.4
2014-Nov-24 03:33N 37°52' W 122°24'3 3.4
2014-Nov-24 02:32N 37°55' W 122°22'0 0.0
2014-Nov-24 01:32N 37°55' W 122°22'0 0.0
2014-Nov-24 00:32N 37°55' W 122°22'0 0.0
2014-Nov-23 23:32N 37°55' W 122°22'0 0.0
2014-Nov-23 22:32N 37°55' W 122°22'0 0.0
2014-Nov-23 21:32N 37°55' W 122°22'0 0.0
2014-Nov-23 20:32N 37°55' W 122°22'2 1.8
2014-Nov-23 19:33N 37°54' W 122°24'7 6.9
2014-Nov-23 18:33N 37°48' W 122°22'2 2.3
2014-Nov-23 17:33N 37°45' W 122°21'0 0.0
2014-Nov-23 16:28N 37°45' W 122°21'0 0.0
2014-Nov-23 15:28N 37°45' W 122°21'0 0.2
2014-Nov-23 14:33N 37°46' W 122°21'2 2.0
2014-Nov-23 13:33N 37°47' W 122°21'3 2.9
2014-Nov-23 12:32N 37°48' W 122°17'0 0.0
2014-Nov-23 11:32N 37°48' W 122°17'0 0.0
2014-Nov-23 10:32N 37°48' W 122°17'0 0.0
2014-Nov-23 09:32N 37°48' W 122°17'0 0.0
2014-Nov-23 08:32N 37°48' W 122°17'0 0.0
2014-Nov-23 07:32N 37°48' W 122°17'0 0.0
2014-Nov-23 06:32N 37°48' W 122°17'0 0.0
2014-Nov-23 05:32N 37°48' W 122°17'0 0.0
2014-Nov-23 04:32N 37°48' W 122°17'0 0.0
2014-Nov-23 03:26N 37°48' W 122°17'1 1.4
2014-Nov-23 02:33N 37°48' W 122°19'3 2.9
2014-Nov-23 01:31N 37°45' W 122°21'0 0.0
2014-Nov-23 00:31N 37°45' W 122°21'1 1.4
2014-Nov-22 23:33N 37°46' W 122°21'3 3.0
2014-Nov-22 22:31N 37°48' W 122°17'0 0.0
2014-Nov-22 21:25N 37°48' W 122°17'0 0.0
2014-Nov-22 20:33N 37°48' W 122°17'0 0.0
2014-Nov-22 19:33N 37°48' W 122°17'0 0.0
2014-Nov-22 18:33N 37°48' W 122°17'0 0.0
2014-Nov-22 17:33N 37°48' W 122°17'0 0.0
2014-Nov-22 16:33N 37°48' W 122°17'0 0.0
2014-Nov-22 15:33N 37°48' W 122°17'0 0.0
2014-Nov-22 14:33N 37°48' W 122°17'0 0.0
2014-Nov-22 13:33N 37°48' W 122°17'0 0.0
2014-Nov-22 12:33N 37°48' W 122°17'0 0.0
2014-Nov-22 11:33N 37°48' W 122°17'0 0.0
2014-Nov-22 10:33N 37°48' W 122°17'0 0.0
2014-Nov-22 09:33N 37°48' W 122°17'0 0.0
2014-Nov-22 08:33N 37°48' W 122°17'0 0.0
2014-Nov-22 07:33N 37°48' W 122°17'0 0.0
2014-Nov-22 06:33N 37°48' W 122°17'0 0.0
2014-Nov-22 05:30N 37°48' W 122°17'0 0.0
2014-Nov-22 04:30N 37°48' W 122°17'0 0.0
2014-Nov-22 03:33N 37°48' W 122°17'0 0.0
2014-Nov-22 02:30N 37°48' W 122°17'1 0.7
2014-Nov-22 01:33N 37°48' W 122°18'7 7.3
2014-Nov-22 00:33N 37°53' W 122°24'3 2.9
2014-Nov-21 23:29N 37°55' W 122°22'0 0.0
2014-Nov-21 22:32N 37°55' W 122°22'0 0.0
2014-Nov-21 21:29N 37°55' W 122°22'0 0.0
2014-Nov-21 20:32N 37°55' W 122°22'0 0.1
2014-Nov-21 19:28N 37°55' W 122°22'0 0.0
2014-Nov-21 18:28N 37°55' W 122°22'0 0.0
2014-Nov-21 17:31N 37°55' W 122°22'0 0.0
2014-Nov-21 16:33N 37°55' W 122°22'5 4.6
2014-Nov-21 15:33N 37°59' W 122°25'11 9.2
2014-Nov-21 14:24N 38°04' W 122°14'4 0.5
2014-Nov-21 05:27N 38°02' W 122°08'6 6.6
2014-Nov-21 04:33N 38°03' W 122°16'0 0.1
2014-Nov-21 03:24N 38°03' W 122°16'0 0.0
2014-Nov-21 02:24N 38°03' W 122°16'0 0.0
2014-Nov-21 01:24N 38°03' W 122°16'0 0.0
2014-Nov-20 04:19N 38°03' W 122°16'6 0.7
2014-Nov-19 19:19N 38°02' W 122°08'6 5.8
2014-Nov-19 18:18N 38°03' W 122°16'0 0.0
2014-Nov-19 17:30N 38°03' W 122°16'0 0.0
2014-Nov-19 16:23N 38°03' W 122°16'0 0.0
2014-Nov-19 15:29N 38°03' W 122°16'0 0.0
2014-Nov-19 14:29N 38°03' W 122°16'0 0.0
2014-Nov-19 13:29N 38°03' W 122°16'0 0.0
2014-Nov-19 12:29N 38°03' W 122°16'0 0.0
2014-Nov-19 11:23N 38°03' W 122°16'0 0.0
2014-Nov-19 10:23N 38°03' W 122°16'0 0.0
2014-Nov-19 09:29N 38°03' W 122°16'0 0.0
2014-Nov-19 08:29N 38°03' W 122°16'0 0.0
2014-Nov-19 07:29N 38°03' W 122°16'0 0.0
2014-Nov-19 06:29N 38°03' W 122°16'0 0.0
2014-Nov-19 05:29N 38°03' W 122°16'0 0.0
2014-Nov-19 04:29N 38°03' W 122°16'0 0.0
2014-Nov-19 03:29N 38°03' W 122°16'1 1.4
2014-Nov-19 02:33N 38°03' W 122°17'8 8.5
2014-Nov-19 01:33N 37°58' W 122°26'9 8.7
2014-Nov-19 00:33N 37°50' W 122°22'3 2.5
2014-Nov-18 23:32N 37°49' W 122°19'0 0.0
2014-Nov-18 22:31N 37°49' W 122°19'2 2.0
2014-Nov-18 21:33N 37°48' W 122°17'0 0.2
2014-Nov-18 20:32N 37°48' W 122°17'1 0.8
2014-Nov-18 19:33N 37°48' W 122°18'2 1.4
2014-Nov-18 18:31N 37°49' W 122°19'0 0.0
2014-Nov-18 17:31N 37°49' W 122°19'0 0.0
2014-Nov-18 16:31N 37°49' W 122°19'1 0.8
2014-Nov-18 15:33N 37°49' W 122°20'6 6.3
2014-Nov-18 14:33N 37°54' W 122°24'2 2.2
2014-Nov-18 13:31N 37°55' W 122°22'0 0.0
2014-Nov-18 12:31N 37°55' W 122°22'0 0.0
2014-Nov-18 11:31N 37°55' W 122°22'0 0.0
2014-Nov-18 10:31N 37°55' W 122°22'0 0.0
2014-Nov-18 09:04N 37°55' W 122°22'0 0.0
2014-Nov-18 08:31N 37°55' W 122°22'0 0.0
2014-Nov-18 07:31N 37°55' W 122°22'0 0.0
2014-Nov-18 06:31N 37°55' W 122°22'0 0.0
2014-Nov-18 05:31N 37°55' W 122°22'0 0.0
2014-Nov-18 04:31N 37°55' W 122°22'0 0.0
2014-Nov-18 03:31N 37°55' W 122°22'0 0.0
2014-Nov-18 02:31N 37°55' W 122°22'0 0.0
2014-Nov-18 01:31N 37°55' W 122°22'0 0.0
2014-Nov-18 00:33N 37°55' W 122°22'0 0.0
2014-Nov-17 23:30N 37°55' W 122°22'1 1.4
2014-Nov-17 22:33N 37°54' W 122°23'9 8.3
2014-Nov-17 21:30N 38°03' W 122°20'8 0.9
2014-Nov-17 12:33N 38°02' W 122°09'5 4.6
2014-Nov-17 11:33N 38°04' W 122°15'1 0.7
2014-Nov-17 10:30N 38°03' W 122°16'0 0.0
2014-Nov-17 09:30N 38°03' W 122°16'0 0.0
2014-Nov-17 08:30N 38°03' W 122°16'0 0.0
2014-Nov-17 07:30N 38°03' W 122°16'0 0.0
2014-Nov-17 06:18N 38°03' W 122°16'0 0.0
2014-Nov-17 05:30N 38°03' W 122°16'0 0.0
2014-Nov-17 04:12N 38°03' W 122°16'0 0.0
2014-Nov-17 03:30N 38°03' W 122°16'0 0.0
2014-Nov-17 02:30N 38°03' W 122°16'0 0.0
2014-Nov-17 01:24N 38°03' W 122°16'0 0.0
2014-Nov-17 00:30N 38°03' W 122°16'0 0.0
2014-Nov-16 23:24N 38°03' W 122°16'0 0.0
2014-Nov-16 22:33N 38°03' W 122°16'2 2.4
2014-Nov-16 21:33N 38°03' W 122°19'7 7.5
2014-Nov-16 20:33N 37°58' W 122°26'9 8.6
2014-Nov-16 19:33N 37°50' W 122°23'4 3.9
2014-Nov-16 18:33N 37°46' W 122°22'0 0.0
2014-Nov-16 17:32N 37°46' W 122°22'0 0.3
2014-Nov-16 16:29N 37°46' W 122°22'0 0.1
2014-Nov-16 15:32N 37°46' W 122°21'0 0.0
2014-Nov-16 14:32N 37°46' W 122°21'1 0.5
2014-Nov-16 13:33N 37°46' W 122°21'2 1.5
2014-Nov-16 12:33N 37°44' W 122°20'0 0.0
2014-Nov-16 11:33N 37°44' W 122°20'0 0.0
2014-Nov-16 10:33N 37°44' W 122°20'0 0.2
2014-Nov-16 09:33N 37°44' W 122°20'0 0.1
2014-Nov-16 08:33N 37°44' W 122°20'0 0.0
2014-Nov-16 07:33N 37°44' W 122°20'0 0.3
2014-Nov-16 06:33N 37°44' W 122°21'  

Dump ship's entire track history